THY2FV LTFE-LTFM
Flight info
| Callsign | THY2FV |
|---|---|
| Flight time | 0h 50m |
| Altitude | 33000 |
| Route | AKBUK UN618 DUGLA/N0477F370 UZ713 INBET |
| Aircraft | B77W/H-SDE1E2E3FGHIJ2J3J4J5M1RWXY/LB1D1 |
Departure
| Time | 2026-04-25 13:07 |
|---|---|
| Airport | Milas Bodrum International Airport (LTFE) |
Arrival
| Time | 2026-04-25 13:57 |
|---|---|
| Airport | İstanbul Airport (LTFM) |
| Time | Latitude | Longitude | Altitude | Speed | Heading |
|---|---|---|---|---|---|
| 2026-04-25 11:08 | 37.24377 | 27.67896 | 15 ft | 0 kts | 197° |
| 2026-04-25 11:09 | 37.24372 | 27.67894 | 35 ft | 0 kts | 197° |
| 2026-04-25 13:00 | 37.24389 | 27.67901 | 33 ft | 4 kts | 197° |
| 2026-04-25 13:00 | 37.24410 | 27.67908 | 32 ft | 4 kts | 182° |
| 2026-04-25 13:01 | 37.24434 | 27.67901 | 32 ft | 4 kts | 134° |
| 2026-04-25 13:01 | 37.24448 | 27.67873 | 31 ft | 4 kts | 108° |
| 2026-04-25 13:01 | 37.24451 | 27.67860 | 35 ft | 1 kts | 106° |
| 2026-04-25 13:04 | 37.24449 | 27.67866 | 35 ft | 3 kts | 108° |
| 2026-04-25 13:04 | 37.24435 | 27.67928 | 35 ft | 11 kts | 107° |
| 2026-04-25 13:05 | 37.24443 | 27.68026 | 35 ft | 12 kts | 49° |
| 2026-04-25 13:05 | 37.24525 | 27.68070 | 35 ft | 13 kts | 19° |
| 2026-04-25 13:05 | 37.24614 | 27.68104 | 34 ft | 13 kts | 17° |
| 2026-04-25 13:05 | 37.24703 | 27.68133 | 34 ft | 13 kts | 355° |
| 2026-04-25 13:06 | 37.24753 | 27.68046 | 36 ft | 13 kts | 284° |
| 2026-04-25 13:06 | 37.24789 | 27.67890 | 36 ft | 35 kts | 286° |
| 2026-04-25 13:06 | 37.24944 | 27.67240 | 36 ft | 120 kts | 287° |
| 2026-04-25 13:06 | 37.25258 | 27.65947 | 209 ft | 175 kts | 286° |
| 2026-04-25 13:07 | 37.25620 | 27.64461 | 1014 ft | 181 kts | 294° |
| 2026-04-25 13:07 | 37.26036 | 27.62936 | 1794 ft | 188 kts | 301° |
| 2026-04-25 13:07 | 37.26390 | 27.61884 | 2064 ft | 201 kts | 301° |
| 2026-04-25 13:07 | 37.27009 | 27.59488 | 2337 ft | 235 kts | 292° |
| 2026-04-25 13:08 | 37.27460 | 27.57393 | 2663 ft | 259 kts | 291° |
| 2026-04-25 13:08 | 37.27773 | 27.55943 | 3114 ft | 262 kts | 291° |
| 2026-04-25 13:08 | 37.28277 | 27.53713 | 3827 ft | 266 kts | 291° |
| 2026-04-25 13:08 | 37.28807 | 27.51458 | 4605 ft | 272 kts | 291° |
| 2026-04-25 13:09 | 37.29362 | 27.49167 | 5486 ft | 276 kts | 291° |
| 2026-04-25 13:09 | 37.30098 | 27.46953 | 6444 ft | 278 kts | 308° |
| 2026-04-25 13:09 | 37.31508 | 27.45241 | 7159 ft | 288 kts | 333° |
| 2026-04-25 13:09 | 37.33436 | 27.44573 | 7849 ft | 295 kts | 4° |
| 2026-04-25 13:10 | 37.35515 | 27.44559 | 8437 ft | 301 kts | 5° |
| 2026-04-25 13:10 | 37.37609 | 27.44560 | 9291 ft | 299 kts | 5° |
| 2026-04-25 13:10 | 37.39678 | 27.44549 | 9876 ft | 304 kts | 5° |
| 2026-04-25 13:10 | 37.41842 | 27.44512 | 10351 ft | 313 kts | 4° |
| 2026-04-25 13:11 | 37.44062 | 27.44451 | 10544 ft | 333 kts | 3° |
| 2026-04-25 13:11 | 37.46451 | 27.44353 | 10711 ft | 354 kts | 2° |
| 2026-04-25 13:11 | 37.48985 | 27.44219 | 10866 ft | 374 kts | 1° |
| 2026-04-25 13:11 | 37.51645 | 27.44061 | 10973 ft | 390 kts | 0° |
| 2026-04-25 13:12 | 37.54389 | 27.43884 | 11303 ft | 397 kts | 360° |
| 2026-04-25 13:12 | 37.57165 | 27.43706 | 11720 ft | 403 kts | 0° |
| 2026-04-25 13:12 | 37.59980 | 27.43531 | 12215 ft | 407 kts | 0° |
| 2026-04-25 13:12 | 37.61856 | 27.43417 | 12625 ft | 407 kts | 0° |
| 2026-04-25 13:13 | 37.65652 | 27.43192 | 13406 ft | 409 kts | 1° |
| 2026-04-25 13:13 | 37.68515 | 27.43029 | 13907 ft | 413 kts | 1° |
| 2026-04-25 13:13 | 37.71394 | 27.42864 | 14390 ft | 415 kts | 1° |
| 2026-04-25 13:13 | 37.74286 | 27.42697 | 14868 ft | 417 kts | 1° |
| 2026-04-25 13:14 | 37.77187 | 27.42530 | 15339 ft | 419 kts | 1° |
| 2026-04-25 13:14 | 37.80082 | 27.42363 | 15729 ft | 423 kts | 1° |
| 2026-04-25 13:14 | 37.83028 | 27.42187 | 16226 ft | 424 kts | 1° |
| 2026-04-25 13:14 | 37.85975 | 27.42012 | 16687 ft | 426 kts | 1° |
| 2026-04-25 13:15 | 37.88952 | 27.41837 | 17034 ft | 429 kts | 1° |
| 2026-04-25 13:15 | 37.91943 | 27.41661 | 17457 ft | 431 kts | 1° |
| 2026-04-25 13:15 | 37.94948 | 27.41485 | 17829 ft | 433 kts | 1° |
| 2026-04-25 13:15 | 37.97968 | 27.41305 | 18234 ft | 435 kts | 0° |
| 2026-04-25 13:16 | 38.01009 | 27.41125 | 18490 ft | 439 kts | 0° |
| 2026-04-25 13:16 | 38.04052 | 27.40942 | 18948 ft | 437 kts | 0° |
| 2026-04-25 13:16 | 38.07101 | 27.40764 | 19210 ft | 441 kts | 0° |
| 2026-04-25 13:16 | 38.10170 | 27.40583 | 19446 ft | 444 kts | 0° |
| 2026-04-25 13:17 | 38.13270 | 27.40398 | 19753 ft | 445 kts | 0° |
| 2026-04-25 13:17 | 38.16363 | 27.40211 | 20072 ft | 445 kts | 0° |
| 2026-04-25 13:17 | 38.19464 | 27.40027 | 20334 ft | 447 kts | 0° |
| 2026-04-25 13:17 | 38.22539 | 27.39844 | 20554 ft | 450 kts | 0° |
| 2026-04-25 13:18 | 38.25702 | 27.39655 | 20865 ft | 450 kts | 0° |
| 2026-04-25 13:18 | 38.28786 | 27.39471 | 21120 ft | 451 kts | 1° |
| 2026-04-25 13:18 | 38.31920 | 27.39286 | 21364 ft | 452 kts | 0° |
| 2026-04-25 13:18 | 38.35072 | 27.39097 | 21616 ft | 453 kts | 1° |
| 2026-04-25 13:19 | 38.38222 | 27.38909 | 21836 ft | 454 kts | 1° |
| 2026-04-25 13:19 | 38.41367 | 27.38719 | 22220 ft | 450 kts | 1° |
| 2026-04-25 13:19 | 38.44480 | 27.38533 | 22736 ft | 445 kts | 1° |
| 2026-04-25 13:19 | 38.46522 | 27.38413 | 23047 ft | 443 kts | 1° |
| 2026-04-25 13:20 | 38.50667 | 27.38179 | 23121 ft | 448 kts | 1° |
| 2026-04-25 13:20 | 38.53796 | 27.37994 | 23147 ft | 453 kts | 1° |
| 2026-04-25 13:20 | 38.56968 | 27.37801 | 23204 ft | 457 kts | 0° |
| 2026-04-25 13:20 | 38.60156 | 27.37604 | 23241 ft | 461 kts | 0° |
| 2026-04-25 13:21 | 38.63373 | 27.37404 | 23316 ft | 464 kts | 0° |
| 2026-04-25 13:21 | 38.66597 | 27.37203 | 23498 ft | 463 kts | 0° |
| 2026-04-25 13:21 | 38.69773 | 27.37007 | 23676 ft | 462 kts | 0° |
| 2026-04-25 13:21 | 38.72964 | 27.36812 | 24106 ft | 455 kts | 0° |
| 2026-04-25 13:22 | 38.76107 | 27.36625 | 24557 ft | 449 kts | 1° |
| 2026-04-25 13:22 | 38.79242 | 27.36443 | 25017 ft | 443 kts | 1° |
| 2026-04-25 13:22 | 38.82267 | 27.36269 | 25479 ft | 438 kts | 1° |
| 2026-04-25 13:23 | 38.88310 | 27.35917 | 26446 ft | 431 kts | 2° |
| 2026-04-25 13:23 | 38.91292 | 27.35744 | 26934 ft | 428 kts | 2° |
| 2026-04-25 13:23 | 38.94250 | 27.35571 | 27436 ft | 424 kts | 2° |
| 2026-04-25 13:23 | 38.97193 | 27.35397 | 27957 ft | 420 kts | 3° |
| 2026-04-25 13:24 | 39.00102 | 27.35224 | 28474 ft | 416 kts | 4° |
| 2026-04-25 13:24 | 39.02982 | 27.35052 | 29000 ft | 412 kts | 4° |
| 2026-04-25 13:24 | 39.05836 | 27.34881 | 29539 ft | 407 kts | 4° |
| 2026-04-25 13:24 | 39.08620 | 27.34714 | 30066 ft | 403 kts | 5° |
| 2026-04-25 13:25 | 39.11400 | 27.34549 | 30445 ft | 400 kts | 5° |
| 2026-04-25 13:25 | 39.17056 | 27.34217 | 30524 ft | 412 kts | 4° |
| 2026-04-25 13:26 | 39.22836 | 27.33844 | 30796 ft | 417 kts | 4° |
| 2026-04-25 13:26 | 39.28678 | 27.33476 | 30949 ft | 424 kts | 4° |
| 2026-04-25 13:27 | 39.34621 | 27.33102 | 30985 ft | 432 kts | 4° |
| 2026-04-25 13:27 | 39.40680 | 27.32719 | 30989 ft | 439 kts | 3° |
| 2026-04-25 13:28 | 39.46834 | 27.32329 | 30983 ft | 445 kts | 3° |
| 2026-04-25 13:28 | 39.53047 | 27.31935 | 30984 ft | 449 kts | 3° |
| 2026-04-25 13:29 | 39.59314 | 27.31539 | 30990 ft | 452 kts | 2° |
| 2026-04-25 13:29 | 39.65627 | 27.31139 | 30985 ft | 455 kts | 2° |
| 2026-04-25 13:30 | 39.75145 | 27.30531 | 30993 ft | 457 kts | 2° |
| 2026-04-25 13:31 | 39.84702 | 27.29912 | 30994 ft | 460 kts | 2° |
| 2026-04-25 13:31 | 39.87874 | 27.29714 | 30453 ft | 469 kts | 2° |
| 2026-04-25 13:31 | 39.91178 | 27.29499 | 29444 ft | 474 kts | 1° |
| 2026-04-25 13:31 | 39.94421 | 27.29269 | 28599 ft | 458 kts | 1° |
| 2026-04-25 13:32 | 39.97540 | 27.29047 | 27944 ft | 439 kts | 2° |
| 2026-04-25 13:32 | 40.00526 | 27.28844 | 27300 ft | 421 kts | 2° |
| 2026-04-25 13:32 | 40.03407 | 27.28651 | 26714 ft | 408 kts | 2° |
| 2026-04-25 13:32 | 40.06213 | 27.28449 | 26086 ft | 401 kts | 2° |
| 2026-04-25 13:33 | 40.08990 | 27.28253 | 25239 ft | 397 kts | 2° |
| 2026-04-25 13:33 | 40.11761 | 27.28078 | 24262 ft | 400 kts | 3° |
| 2026-04-25 13:33 | 40.14552 | 27.27937 | 23629 ft | 403 kts | 6° |
| 2026-04-25 13:33 | 40.17231 | 27.28535 | 23317 ft | 384 kts | 25° |
| 2026-04-25 13:34 | 40.19520 | 27.30149 | 23120 ft | 362 kts | 41° |
| 2026-04-25 13:34 | 40.21378 | 27.32365 | 23154 ft | 366 kts | 56° |
| 2026-04-25 13:34 | 40.22891 | 27.35106 | 23131 ft | 376 kts | 60° |
| 2026-04-25 13:34 | 40.24338 | 27.37956 | 23143 ft | 381 kts | 61° |
| 2026-04-25 13:35 | 40.25808 | 27.40866 | 23092 ft | 385 kts | 60° |
| 2026-04-25 13:35 | 40.27304 | 27.43786 | 22518 ft | 383 kts | 60° |
| 2026-04-25 13:35 | 40.28791 | 27.46615 | 22083 ft | 369 kts | 59° |
| 2026-04-25 13:35 | 40.30236 | 27.49331 | 21675 ft | 363 kts | 59° |
| 2026-04-25 13:36 | 40.31705 | 27.52075 | 21281 ft | 374 kts | 59° |
| 2026-04-25 13:36 | 40.33212 | 27.54858 | 20854 ft | 370 kts | 59° |
| 2026-04-25 13:36 | 40.34697 | 27.57587 | 20423 ft | 366 kts | 59° |
| 2026-04-25 13:36 | 40.36181 | 27.60319 | 20034 ft | 368 kts | 59° |
| 2026-04-25 13:37 | 40.37666 | 27.63050 | 19627 ft | 368 kts | 58° |
| 2026-04-25 13:37 | 40.39152 | 27.65785 | 19215 ft | 369 kts | 58° |
| 2026-04-25 13:37 | 40.40630 | 27.68506 | 18794 ft | 363 kts | 58° |
| 2026-04-25 13:37 | 40.42089 | 27.71197 | 18393 ft | 362 kts | 58° |
| 2026-04-25 13:38 | 40.43535 | 27.73870 | 17955 ft | 365 kts | 58° |
| 2026-04-25 13:38 | 40.44999 | 27.76571 | 17509 ft | 359 kts | 58° |
| 2026-04-25 13:38 | 40.46432 | 27.79217 | 17085 ft | 354 kts | 59° |
| 2026-04-25 13:38 | 40.47856 | 27.81857 | 16698 ft | 357 kts | 59° |
| 2026-04-25 13:39 | 40.49300 | 27.84532 | 16291 ft | 355 kts | 58° |
| 2026-04-25 13:39 | 40.50711 | 27.87143 | 15885 ft | 348 kts | 59° |
| 2026-04-25 13:39 | 40.52114 | 27.89749 | 15503 ft | 350 kts | 59° |
| 2026-04-25 13:39 | 40.53526 | 27.92371 | 15115 ft | 352 kts | 58° |
| 2026-04-25 13:40 | 40.54939 | 27.94990 | 14724 ft | 350 kts | 58° |
| 2026-04-25 13:40 | 40.56344 | 27.97596 | 14333 ft | 348 kts | 59° |
| 2026-04-25 13:40 | 40.57738 | 28.00187 | 13939 ft | 346 kts | 59° |
| 2026-04-25 13:40 | 40.59123 | 28.02768 | 13505 ft | 344 kts | 59° |
| 2026-04-25 13:41 | 40.60503 | 28.05339 | 13098 ft | 342 kts | 59° |
| 2026-04-25 13:41 | 40.61866 | 28.07880 | 12690 ft | 337 kts | 59° |
| 2026-04-25 13:41 | 40.63198 | 28.10368 | 12321 ft | 336 kts | 59° |
| 2026-04-25 13:41 | 40.64545 | 28.12885 | 11947 ft | 337 kts | 59° |
| 2026-04-25 13:42 | 40.65890 | 28.15394 | 11550 ft | 331 kts | 59° |
| 2026-04-25 13:42 | 40.67210 | 28.17861 | 11203 ft | 326 kts | 59° |
| 2026-04-25 13:42 | 40.68492 | 28.20262 | 10818 ft | 315 kts | 59° |
| 2026-04-25 13:42 | 40.69721 | 28.22570 | 10454 ft | 301 kts | 60° |
| 2026-04-25 13:43 | 40.70892 | 28.24773 | 10115 ft | 286 kts | 61° |
| 2026-04-25 13:43 | 40.72013 | 28.26879 | 9779 ft | 274 kts | 61° |
| 2026-04-25 13:43 | 40.73109 | 28.28942 | 9475 ft | 278 kts | 61° |
| 2026-04-25 13:43 | 40.74237 | 28.31055 | 9168 ft | 282 kts | 60° |
| 2026-04-25 13:44 | 40.75357 | 28.33138 | 8824 ft | 275 kts | 61° |
| 2026-04-25 13:44 | 40.76458 | 28.35191 | 8522 ft | 274 kts | 61° |
| 2026-04-25 13:44 | 40.77563 | 28.37256 | 8208 ft | 277 kts | 61° |
| 2026-04-25 13:44 | 40.78651 | 28.39285 | 7902 ft | 271 kts | 61° |
| 2026-04-25 13:45 | 40.79748 | 28.41333 | 7592 ft | 271 kts | 62° |
| 2026-04-25 13:45 | 40.80827 | 28.43349 | 7313 ft | 273 kts | 61° |
| 2026-04-25 13:45 | 40.81915 | 28.45370 | 6989 ft | 266 kts | 61° |
| 2026-04-25 13:45 | 40.82971 | 28.47321 | 6733 ft | 254 kts | 62° |
| 2026-04-25 13:46 | 40.83975 | 28.49173 | 6403 ft | 241 kts | 63° |
| 2026-04-25 13:46 | 40.84916 | 28.50908 | 6184 ft | 222 kts | 63° |
| 2026-04-25 13:46 | 40.85772 | 28.52493 | 5935 ft | 204 kts | 65° |
| 2026-04-25 13:46 | 40.86560 | 28.53994 | 5662 ft | 197 kts | 66° |
| 2026-04-25 13:47 | 40.87333 | 28.55487 | 5442 ft | 197 kts | 66° |
| 2026-04-25 13:47 | 40.88105 | 28.56979 | 5237 ft | 196 kts | 66° |
| 2026-04-25 13:47 | 40.88885 | 28.58445 | 5053 ft | 195 kts | 62° |
| 2026-04-25 13:47 | 40.89529 | 28.60002 | 4993 ft | 197 kts | 81° |
| 2026-04-25 13:48 | 40.89915 | 28.61717 | 4983 ft | 194 kts | 84° |
| 2026-04-25 13:48 | 40.90301 | 28.63426 | 4988 ft | 194 kts | 83° |
| 2026-04-25 13:48 | 40.90698 | 28.65113 | 4999 ft | 195 kts | 83° |
| 2026-04-25 13:48 | 40.91109 | 28.66827 | 5007 ft | 195 kts | 83° |
| 2026-04-25 13:49 | 40.91576 | 28.68514 | 4946 ft | 198 kts | 69° |
| 2026-04-25 13:49 | 40.92550 | 28.69737 | 5042 ft | 198 kts | 43° |
| 2026-04-25 13:49 | 40.93754 | 28.70682 | 5014 ft | 201 kts | 39° |
| 2026-04-25 13:49 | 40.94961 | 28.71579 | 5002 ft | 199 kts | 40° |
| 2026-04-25 13:50 | 40.96175 | 28.72493 | 5007 ft | 201 kts | 40° |
| 2026-04-25 13:50 | 40.97470 | 28.73193 | 4990 ft | 200 kts | 18° |
| 2026-04-25 13:50 | 40.98876 | 28.73383 | 4993 ft | 206 kts | 12° |
| 2026-04-25 13:50 | 41.00293 | 28.73426 | 4998 ft | 202 kts | 10° |
| 2026-04-25 13:51 | 41.01686 | 28.73420 | 4997 ft | 200 kts | 9° |
| 2026-04-25 13:51 | 41.03052 | 28.73399 | 4822 ft | 192 kts | 9° |
| 2026-04-25 13:51 | 41.04331 | 28.73371 | 4594 ft | 177 kts | 10° |
| 2026-04-25 13:51 | 41.05499 | 28.73340 | 4378 ft | 160 kts | 11° |
| 2026-04-25 13:52 | 41.06584 | 28.73309 | 4155 ft | 153 kts | 12° |
| 2026-04-25 13:52 | 41.07652 | 28.73283 | 3964 ft | 153 kts | 11° |
| 2026-04-25 13:52 | 41.08719 | 28.73250 | 3764 ft | 153 kts | 11° |
| 2026-04-25 13:52 | 41.09782 | 28.73218 | 3561 ft | 152 kts | 11° |
| 2026-04-25 13:53 | 41.10823 | 28.73188 | 3369 ft | 152 kts | 12° |
| 2026-04-25 13:53 | 41.11888 | 28.73161 | 3155 ft | 150 kts | 11° |
| 2026-04-25 13:53 | 41.12916 | 28.73135 | 2968 ft | 147 kts | 12° |
| 2026-04-25 13:53 | 41.13932 | 28.73109 | 2764 ft | 147 kts | 12° |
| 2026-04-25 13:54 | 41.14936 | 28.73089 | 2559 ft | 143 kts | 13° |
| 2026-04-25 13:54 | 41.15928 | 28.73061 | 2369 ft | 139 kts | 13° |
| 2026-04-25 13:54 | 41.16901 | 28.73037 | 2179 ft | 143 kts | 14° |
| 2026-04-25 13:54 | 41.17900 | 28.73007 | 1968 ft | 143 kts | 13° |
| 2026-04-25 13:55 | 41.18893 | 28.73007 | 1797 ft | 147 kts | 13° |
| 2026-04-25 13:55 | 41.19904 | 28.73008 | 1696 ft | 146 kts | 2° |
| 2026-04-25 13:55 | 41.20933 | 28.72919 | 1482 ft | 147 kts | 1° |
| 2026-04-25 13:55 | 41.21926 | 28.72859 | 1203 ft | 138 kts | 5° |
| 2026-04-25 13:56 | 41.22873 | 28.72853 | 983 ft | 136 kts | 5° |
| 2026-04-25 13:56 | 41.23814 | 28.72830 | 752 ft | 134 kts | 5° |
| 2026-04-25 13:56 | 41.24755 | 28.72810 | 649 ft | 137 kts | 3° |
| 2026-04-25 13:56 | 41.25714 | 28.72783 | 478 ft | 140 kts | 3° |
| 2026-04-25 13:57 | 41.26686 | 28.72768 | 338 ft | 136 kts | 359° |
| 2026-04-25 13:57 | 41.26982 | 28.72759 | 338 ft | 126 kts | 359° |
| 2026-04-25 13:57 | 41.27826 | 28.72740 | 335 ft | 61 kts | 359° |
| 2026-04-25 13:57 | 41.28029 | 28.72734 | 335 ft | 44 kts | 359° |
| 2026-04-25 13:58 | 41.28110 | 28.72734 | 335 ft | 42 kts | 354° |
| 2026-04-25 13:58 | 41.28371 | 28.72805 | 336 ft | 36 kts | 16° |
| 2026-04-25 13:59 | 41.28450 | 28.72939 | 336 ft | 9 kts | 118° |
| 2026-04-25 13:59 | 41.28389 | 28.72950 | 335 ft | 10 kts | 181° |
| 2026-04-25 13:59 | 41.28319 | 28.72955 | 335 ft | 11 kts | 179° |
| 2026-04-25 13:59 | 41.28241 | 28.72955 | 335 ft | 12 kts | 179° |
| 2026-04-25 14:00 | 41.28184 | 28.72959 | 334 ft | 12 kts | 178° |
| 2026-04-25 14:00 | 41.28045 | 28.72961 | 334 ft | 16 kts | 178° |
| 2026-04-25 14:00 | 41.27932 | 28.72967 | 334 ft | 16 kts | 172° |
| 2026-04-25 14:00 | 41.27930 | 28.72967 | 334 ft | 16 kts | 172° |
| 2026-04-25 14:01 | 41.27872 | 28.72967 | 335 ft | 16 kts | 181° |
| 2026-04-25 14:01 | 41.27757 | 28.72968 | 334 ft | 16 kts | 179° |
| 2026-04-25 14:02 | 41.27639 | 28.72971 | 334 ft | 18 kts | 179° |
| 2026-04-25 14:02 | 41.27507 | 28.72974 | 335 ft | 19 kts | 178° |
| 2026-04-25 14:02 | 41.27373 | 28.72975 | 335 ft | 19 kts | 176° |
| 2026-04-25 14:02 | 41.27284 | 28.72980 | 338 ft | 19 kts | 179° |
| 2026-04-25 14:03 | 41.27105 | 28.72982 | 336 ft | 19 kts | 176° |
| 2026-04-25 14:03 | 41.26973 | 28.72985 | 334 ft | 19 kts | 193° |
| 2026-04-25 14:03 | 41.26863 | 28.73053 | 334 ft | 19 kts | 110° |
| 2026-04-25 14:03 | 41.26868 | 28.73231 | 336 ft | 19 kts | 89° |
| 2026-04-25 14:04 | 41.26867 | 28.73391 | 336 ft | 10 kts | 102° |
| 2026-04-25 14:05 | 41.26831 | 28.73433 | 335 ft | 9 kts | 158° |
| 2026-04-25 14:05 | 41.26800 | 28.73440 | 338 ft | 3 kts | 176° |
| 2026-04-25 14:05 | 41.26791 | 28.73440 | 334 ft | 1 kts | 177° |
| 2026-04-25 14:06 | 41.26787 | 28.73441 | 335 ft | 0 kts | 177° |